createdAt,value
2024-02-11T00:02:47.466Z,6.23
2024-02-11T00:05:50.132Z,6.25
2024-02-11T00:08:52.000Z,6.27
2024-02-11T00:11:53.052Z,6.28
2024-02-11T00:14:54.076Z,6.27
2024-02-11T00:17:55.180Z,6.26
2024-02-11T00:20:56.407Z,6.26
2024-02-11T00:23:59.544Z,6.25
2024-02-11T00:27:00.562Z,6.23
2024-02-11T00:30:01.958Z,6.22
2024-02-11T00:33:03.078Z,6.18
2024-02-11T00:36:06.284Z,6.14
2024-02-11T00:39:07.329Z,6.13
2024-02-11T00:42:08.321Z,6.11
2024-02-11T00:45:12.834Z,6.08
2024-02-11T00:48:13.914Z,6.06
2024-02-11T00:51:15.191Z,6.04
2024-02-11T00:54:16.170Z,6.02
2024-02-11T00:57:20.527Z,6.01
2024-02-11T01:00:23.012Z,5.98
2024-02-11T01:03:24.006Z,5.97
2024-02-11T01:06:25.880Z,5.95
2024-02-11T01:09:26.956Z,5.94
2024-02-11T01:12:29.053Z,5.93
2024-02-11T01:15:30.057Z,5.92
2024-02-11T01:18:31.069Z,5.91
2024-02-11T01:21:32.041Z,5.90
2024-02-11T01:24:34.943Z,5.88
2024-02-11T01:27:38.167Z,5.86
2024-02-11T01:30:39.536Z,5.85
2024-02-11T01:33:40.639Z,5.86
2024-02-11T01:36:42.141Z,5.87
2024-02-11T01:39:43.087Z,5.89
2024-02-11T01:42:48.551Z,5.90
2024-02-11T01:45:49.888Z,5.91
2024-02-11T01:48:51.241Z,5.93
2024-02-11T01:51:53.512Z,5.93
2024-02-11T01:54:55.381Z,5.95
2024-02-11T01:57:57.469Z,5.98
2024-02-11T02:00:59.607Z,6.00
2024-02-11T02:04:00.774Z,6.02
2024-02-11T02:07:03.072Z,6.03
2024-02-11T02:10:05.483Z,6.03
2024-02-11T02:13:06.541Z,6.06
2024-02-11T02:16:08.425Z,6.08
2024-02-11T02:19:10.724Z,6.10
2024-02-11T02:22:11.938Z,6.12
2024-02-11T02:25:12.945Z,6.11
2024-02-11T02:28:13.913Z,6.10
2024-02-11T02:31:14.925Z,6.13
2024-02-11T02:34:16.084Z,6.16
2024-02-11T02:37:17.249Z,6.19
2024-02-11T02:40:18.229Z,6.23
2024-02-11T02:43:19.390Z,6.27
2024-02-11T02:46:20.371Z,6.30
2024-02-11T02:49:21.415Z,6.34
2024-02-11T02:52:22.472Z,6.38
2024-02-11T02:55:23.435Z,6.43
2024-02-11T02:58:24.426Z,6.47
2024-02-11T03:01:28.105Z,6.50
2024-02-11T03:04:29.089Z,6.54
2024-02-11T03:07:30.234Z,6.56
2024-02-11T03:10:31.250Z,6.59
2024-02-11T03:13:32.296Z,6.61
2024-02-11T03:16:33.422Z,6.61
2024-02-11T03:19:34.631Z,6.59
2024-02-11T03:22:35.911Z,6.59
2024-02-11T03:25:36.977Z,6.61
2024-02-11T03:28:41.466Z,6.58
2024-02-11T03:31:42.740Z,6.56
2024-02-11T03:34:43.831Z,6.58
2024-02-11T03:37:44.924Z,6.62
2024-02-11T03:40:45.959Z,6.66
2024-02-11T03:43:47.107Z,6.70
2024-02-11T03:46:48.175Z,6.74
2024-02-11T03:49:50.698Z,6.78
2024-02-11T03:52:52.104Z,6.81
2024-02-11T03:55:53.555Z,6.83
2024-02-11T03:58:55.921Z,6.84
2024-02-11T04:02:04.873Z,6.85
2024-02-11T04:05:06.692Z,6.86
2024-02-11T04:08:09.006Z,6.85
2024-02-11T04:11:11.003Z,6.86
2024-02-11T04:14:12.839Z,6.87
2024-02-11T04:17:14.100Z,6.90
2024-02-11T04:20:25.610Z,6.93
2024-02-11T04:23:28.385Z,6.96
2024-02-11T04:26:29.415Z,6.97
2024-02-11T04:29:30.602Z,6.97
2024-02-11T04:32:31.637Z,6.97
2024-02-11T04:35:34.217Z,6.97
2024-02-11T04:38:35.650Z,6.93
2024-02-11T04:41:37.811Z,6.83
2024-02-11T04:44:38.835Z,6.78
2024-02-11T04:47:41.594Z,6.82
2024-02-11T04:50:44.655Z,6.87
2024-02-11T04:53:47.685Z,6.91
2024-02-11T04:56:48.678Z,6.93
2024-02-11T04:59:49.734Z,6.95
2024-02-11T05:02:55.787Z,6.97
2024-02-11T05:05:58.108Z,6.99
2024-02-11T05:09:01.325Z,7.01
2024-02-11T05:12:02.376Z,7.04
2024-02-11T05:15:04.377Z,7.05
2024-02-11T05:18:06.486Z,7.07
2024-02-11T05:21:07.567Z,7.10
2024-02-11T05:24:08.572Z,7.13
2024-02-11T05:27:09.978Z,7.17
2024-02-11T05:30:11.878Z,7.21
2024-02-11T05:33:13.802Z,7.24
2024-02-11T05:36:14.904Z,7.25
2024-02-11T05:39:19.531Z,7.26
2024-02-11T05:42:21.276Z,7.30
2024-02-11T05:45:22.826Z,7.32
2024-02-11T05:48:24.208Z,7.34
2024-02-11T05:51:25.620Z,7.36
2024-02-11T05:54:29.194Z,7.37
2024-02-11T05:57:30.285Z,7.36
2024-02-11T06:00:32.041Z,7.36
2024-02-11T06:03:33.769Z,7.36
2024-02-11T06:06:34.792Z,7.37
2024-02-11T06:09:35.737Z,7.40
2024-02-11T06:12:37.667Z,7.43
2024-02-11T06:15:41.116Z,7.46
2024-02-11T06:18:42.582Z,7.51
2024-02-11T06:21:44.333Z,7.54
2024-02-11T06:24:46.372Z,7.58
2024-02-11T06:27:50.646Z,7.64
2024-02-11T06:30:53.100Z,7.71
2024-02-11T06:33:54.270Z,7.77
2024-02-11T06:36:55.280Z,7.83
2024-02-11T06:39:56.252Z,7.87
2024-02-11T06:42:59.874Z,7.91
2024-02-11T06:46:00.814Z,7.97
2024-02-11T06:49:01.943Z,8.03
2024-02-11T06:52:03.547Z,8.07
2024-02-11T06:55:10.661Z,8.11
2024-02-11T06:58:12.454Z,8.13
2024-02-11T07:01:13.910Z,8.18
2024-02-11T07:04:15.083Z,8.24
2024-02-11T07:07:17.423Z,8.28
2024-02-11T07:10:18.521Z,8.34
2024-02-11T07:13:19.564Z,8.41
2024-02-11T07:16:22.326Z,8.44
2024-02-11T07:19:25.428Z,8.46
2024-02-11T07:22:26.386Z,8.52
2024-02-11T07:25:30.779Z,8.54
2024-02-11T07:28:31.900Z,8.58
2024-02-11T07:31:34.412Z,8.64
2024-02-11T07:34:35.686Z,8.71
2024-02-11T07:37:36.774Z,8.77
2024-02-11T07:40:37.836Z,8.84
2024-02-11T07:43:39.704Z,8.92
2024-02-11T07:46:40.840Z,9.02
2024-02-11T07:49:44.801Z,9.11
2024-02-11T07:52:47.282Z,9.21
2024-02-11T07:55:48.799Z,9.32
2024-02-11T07:58:49.952Z,9.42
2024-02-11T08:01:51.121Z,9.50
2024-02-11T08:04:52.306Z,9.56
2024-02-11T08:07:53.566Z,9.62
2024-02-11T08:10:55.049Z,9.71
2024-02-11T08:13:56.231Z,9.78
2024-02-11T08:16:57.425Z,9.85
2024-02-11T08:19:58.518Z,9.91
2024-02-11T08:22:59.912Z,9.98
2024-02-11T08:26:02.053Z,10.06
2024-02-11T08:29:04.957Z,10.12
2024-02-11T08:32:06.319Z,10.16
2024-02-11T08:35:09.480Z,10.22
2024-02-11T08:38:11.147Z,10.33
2024-02-11T08:41:12.417Z,10.39
2024-02-11T08:44:14.558Z,10.45
2024-02-11T08:47:16.364Z,10.49
2024-02-11T08:50:18.105Z,10.53
2024-02-11T08:53:19.656Z,10.59
2024-02-11T08:56:21.286Z,10.68
2024-02-11T08:59:22.911Z,10.77
2024-02-11T09:02:29.591Z,10.85
2024-02-11T09:05:35.109Z,10.97
2024-02-11T09:08:36.151Z,11.07
2024-02-11T09:11:37.294Z,11.18
2024-02-11T09:14:39.825Z,11.31
2024-02-11T09:17:44.012Z,11.39
2024-02-11T09:20:45.078Z,11.47
2024-02-11T09:23:46.084Z,11.54
2024-02-11T09:26:53.337Z,11.60
2024-02-11T09:29:54.399Z,11.67
2024-02-11T09:32:56.202Z,11.73
2024-02-11T09:35:58.029Z,11.80
2024-02-11T09:38:59.018Z,11.84
2024-02-11T09:42:00.164Z,11.91
2024-02-11T09:45:03.999Z,11.95
2024-02-11T09:48:08.188Z,11.95
2024-02-11T09:51:11.020Z,12.03
2024-02-11T09:54:13.906Z,12.14
2024-02-11T09:57:14.984Z,12.24
2024-02-11T10:00:18.465Z,12.34
2024-02-11T10:03:24.808Z,12.48
2024-02-11T10:06:37.950Z,12.59
2024-02-11T10:09:39.130Z,12.67
2024-02-11T10:12:42.224Z,12.74
2024-02-11T10:15:44.548Z,12.83
2024-02-11T10:18:45.580Z,12.93
2024-02-11T10:21:48.072Z,13.04
2024-02-11T10:24:50.000Z,13.14
2024-02-11T10:27:51.510Z,13.19
2024-02-11T10:30:55.650Z,13.26
2024-02-11T10:33:58.168Z,13.31
2024-02-11T10:37:01.334Z,13.40
2024-02-11T10:40:06.431Z,13.50
2024-02-11T10:43:10.268Z,13.61
2024-02-11T10:46:11.333Z,13.69
2024-02-11T10:49:12.440Z,13.72
2024-02-11T10:52:17.158Z,13.73
2024-02-11T10:55:22.877Z,13.73
2024-02-11T10:58:29.967Z,13.70
2024-02-11T11:01:33.329Z,13.66
2024-02-11T11:04:34.856Z,13.61
2024-02-11T11:07:39.501Z,13.56
2024-02-11T11:10:41.043Z,13.50
2024-02-11T11:13:42.425Z,13.46
2024-02-11T11:16:47.147Z,13.45
2024-02-11T11:19:53.005Z,13.48
2024-02-11T11:22:58.847Z,13.50
2024-02-11T11:25:59.915Z,13.53
2024-02-11T11:29:04.694Z,13.57
2024-02-11T11:32:11.193Z,13.61
2024-02-11T11:35:17.851Z,13.65
2024-02-11T11:38:22.671Z,13.69
2024-02-11T11:41:25.036Z,13.72
2024-02-11T11:44:26.172Z,13.73
2024-02-11T11:47:28.937Z,13.74
2024-02-11T11:50:29.991Z,13.73
2024-02-11T11:53:31.139Z,13.71
2024-02-11T11:56:32.224Z,13.69
2024-02-11T11:59:33.285Z,13.69
2024-02-11T12:02:35.885Z,13.72
2024-02-11T12:05:37.159Z,13.76
2024-02-11T12:08:39.278Z,13.83
2024-02-11T12:11:49.182Z,13.90
2024-02-11T12:14:50.933Z,13.92
2024-02-11T12:17:52.180Z,13.94
2024-02-11T12:20:54.660Z,13.96
2024-02-11T12:23:55.723Z,13.91
2024-02-11T12:26:59.524Z,13.83
2024-02-11T12:30:01.780Z,13.77
2024-02-11T12:33:04.384Z,13.75
2024-02-11T12:36:12.875Z,13.81
2024-02-11T12:39:13.868Z,13.91
2024-02-11T12:42:17.428Z,14.00
2024-02-11T12:45:18.749Z,14.08
2024-02-11T12:48:20.777Z,14.19
2024-02-11T12:51:21.825Z,14.25
2024-02-11T12:54:23.018Z,14.27
2024-02-11T12:57:23.966Z,14.26
2024-02-11T13:00:25.334Z,14.22
2024-02-11T13:03:26.647Z,14.15
2024-02-11T13:06:27.610Z,14.06
2024-02-11T13:09:28.580Z,13.98
2024-02-11T13:12:29.848Z,13.88
2024-02-11T13:15:30.829Z,13.79
2024-02-11T13:18:32.402Z,13.65
2024-02-11T13:21:35.097Z,13.50
2024-02-11T13:24:36.258Z,13.38
2024-02-11T13:27:43.656Z,13.29
2024-02-11T13:30:46.184Z,13.20
2024-02-11T13:33:47.304Z,13.15
2024-02-11T13:36:53.957Z,13.09
2024-02-11T13:39:57.804Z,13.01
2024-02-11T13:43:00.135Z,12.93
2024-02-11T13:46:01.147Z,12.85
2024-02-11T13:49:02.305Z,12.76
2024-02-11T13:52:03.669Z,12.68
2024-02-11T13:55:06.490Z,12.58
2024-02-11T13:58:07.556Z,12.51
2024-02-11T14:01:12.898Z,12.42
2024-02-11T14:04:14.078Z,12.36
2024-02-11T14:07:16.020Z,12.29
2024-02-11T14:10:17.079Z,12.21
2024-02-11T14:13:20.358Z,12.15
2024-02-11T14:16:21.397Z,12.11
2024-02-11T14:19:23.794Z,12.07
2024-02-11T14:22:24.908Z,12.04
2024-02-11T14:25:25.895Z,12.06
2024-02-11T14:28:26.939Z,12.04
2024-02-11T14:31:28.035Z,12.01
2024-02-11T14:34:31.390Z,11.96
2024-02-11T14:37:32.357Z,11.91
2024-02-11T14:40:33.982Z,11.88
2024-02-11T14:43:38.501Z,11.86
2024-02-11T14:46:40.434Z,11.82
2024-02-11T14:49:44.036Z,11.78
2024-02-11T14:52:45.161Z,11.74
2024-02-11T14:55:46.338Z,11.72
2024-02-11T14:58:48.027Z,11.68
2024-02-11T15:01:49.171Z,11.63
2024-02-11T15:04:50.713Z,11.56
2024-02-11T15:07:52.146Z,11.53
2024-02-11T15:10:54.086Z,11.49
2024-02-11T15:13:55.185Z,11.49
2024-02-11T15:16:56.272Z,11.47
2024-02-11T15:20:00.396Z,11.41
2024-02-11T15:23:01.472Z,11.37
2024-02-11T15:26:03.662Z,11.32
2024-02-11T15:29:04.772Z,11.28
2024-02-11T15:32:08.259Z,11.24
2024-02-11T15:35:09.437Z,11.19
2024-02-11T15:38:10.575Z,11.14
2024-02-11T15:41:11.659Z,11.10
2024-02-11T15:44:13.460Z,11.05
2024-02-11T15:47:14.968Z,11.01
2024-02-11T15:50:16.982Z,10.97
2024-02-11T15:53:18.142Z,10.94
2024-02-11T15:56:19.975Z,10.95
2024-02-11T15:59:21.107Z,10.90
2024-02-11T16:02:22.142Z,10.87
2024-02-11T16:05:24.446Z,10.85
2024-02-11T16:08:25.958Z,10.81
2024-02-11T16:11:27.085Z,10.80
2024-02-11T16:14:28.393Z,10.81
2024-02-11T16:17:37.274Z,10.78
2024-02-11T16:20:41.566Z,10.76
2024-02-11T16:23:44.345Z,10.76
2024-02-11T16:26:45.405Z,10.76
2024-02-11T16:29:46.390Z,10.75
2024-02-11T16:32:48.406Z,10.73
2024-02-11T16:35:49.669Z,10.73
2024-02-11T16:38:52.120Z,10.73
2024-02-11T16:41:53.140Z,10.72
2024-02-11T16:44:55.918Z,10.71
2024-02-11T16:47:58.693Z,10.70
2024-02-11T16:51:00.453Z,10.68
2024-02-11T16:54:01.780Z,10.67
2024-02-11T16:57:03.095Z,10.62
2024-02-11T17:00:04.776Z,10.61
2024-02-11T17:03:05.858Z,10.61
2024-02-11T17:06:07.854Z,10.59
2024-02-11T17:09:09.769Z,10.60
2024-02-11T17:12:13.705Z,10.60
2024-02-11T17:15:15.097Z,10.59
2024-02-11T17:18:16.279Z,10.59
2024-02-11T17:21:17.526Z,10.59
2024-02-11T17:24:18.779Z,10.59
2024-02-11T17:27:19.907Z,10.63
2024-02-11T17:30:20.979Z,10.64
2024-02-11T17:33:24.536Z,10.63
2024-02-11T17:36:25.757Z,10.62
2024-02-11T17:39:27.030Z,10.64
2024-02-11T17:42:28.034Z,10.63
2024-02-11T17:45:29.337Z,10.63
2024-02-11T17:48:30.621Z,10.61
2024-02-11T17:51:33.675Z,10.61
2024-02-11T17:54:38.079Z,10.64
2024-02-11T17:57:41.534Z,10.68
2024-02-11T18:00:53.238Z,10.73
2024-02-11T18:04:00.070Z,10.76
2024-02-11T18:07:01.089Z,10.78
2024-02-11T18:10:03.381Z,10.78
2024-02-11T18:13:04.788Z,10.78
2024-02-11T18:16:06.621Z,10.79
2024-02-11T18:19:09.363Z,10.79
2024-02-11T18:22:10.405Z,10.79
2024-02-11T18:25:23.908Z,10.80
2024-02-11T18:28:35.058Z,10.79
2024-02-11T18:31:36.082Z,10.75
2024-02-11T18:34:38.314Z,10.75
2024-02-11T18:37:39.277Z,10.75
2024-02-11T18:40:40.280Z,10.75
2024-02-11T18:43:42.010Z,10.74
2024-02-11T18:46:43.943Z,10.70
2024-02-11T18:49:44.999Z,10.67
2024-02-11T18:52:46.472Z,10.68
2024-02-11T18:55:48.098Z,10.66
2024-02-11T18:58:50.271Z,10.65
2024-02-11T19:01:51.265Z,10.60
2024-02-11T19:04:52.898Z,10.60
2024-02-11T19:07:54.719Z,10.62
2024-02-11T19:10:55.702Z,10.65
2024-02-11T19:13:58.695Z,10.67
2024-02-11T19:17:00.146Z,10.66
2024-02-11T19:20:02.504Z,10.66
2024-02-11T19:23:05.431Z,10.64
2024-02-11T19:26:06.410Z,10.62
2024-02-11T19:29:10.688Z,10.60
2024-02-11T19:32:12.306Z,10.60
2024-02-11T19:35:14.784Z,10.61
2024-02-11T19:38:15.882Z,10.61
2024-02-11T19:41:17.262Z,10.59
2024-02-11T19:44:19.285Z,10.57
2024-02-11T19:47:20.940Z,10.54
2024-02-11T19:50:22.062Z,10.54
2024-02-11T19:53:34.196Z,10.54
2024-02-11T19:56:39.337Z,10.57
2024-02-11T19:59:40.326Z,10.56
2024-02-11T20:02:41.307Z,10.56
2024-02-11T20:05:43.360Z,10.55
2024-02-11T20:08:46.908Z,10.55
2024-02-11T20:11:48.169Z,10.51
2024-02-11T20:14:49.222Z,10.50
2024-02-11T20:17:50.863Z,10.49
2024-02-11T20:20:54.892Z,10.48
2024-02-11T20:23:57.263Z,10.47
2024-02-11T20:26:58.210Z,10.45
2024-02-11T20:29:59.367Z,10.45
2024-02-11T20:33:04.491Z,10.45
2024-02-11T20:36:07.695Z,10.47
2024-02-11T20:39:11.263Z,10.50
2024-02-11T20:42:12.253Z,10.54
2024-02-11T20:45:18.102Z,10.60
2024-02-11T20:48:19.300Z,10.60
2024-02-11T20:51:21.250Z,10.60
2024-02-11T20:54:23.091Z,10.60
2024-02-11T20:57:24.194Z,10.62
2024-02-11T21:00:27.309Z,10.63
2024-02-11T21:03:28.532Z,10.64
2024-02-11T21:06:29.582Z,10.68
2024-02-11T21:09:31.045Z,10.70
2024-02-11T21:12:32.012Z,10.74
2024-02-11T21:15:34.717Z,10.77
2024-02-11T21:18:36.603Z,10.79
2024-02-11T21:21:38.296Z,10.83
2024-02-11T21:24:41.121Z,10.84
2024-02-11T21:27:49.006Z,10.87
2024-02-11T21:31:04.951Z,10.89
2024-02-11T21:34:10.220Z,10.91
2024-02-11T21:37:11.196Z,10.95
2024-02-11T21:40:14.525Z,10.98
2024-02-11T21:43:15.461Z,10.98
2024-02-11T21:46:18.365Z,11.00
2024-02-11T21:49:19.343Z,11.02
2024-02-11T21:52:21.227Z,11.03
2024-02-11T21:55:22.190Z,11.03
2024-02-11T21:58:23.222Z,11.05
2024-02-11T22:01:24.224Z,11.06
2024-02-11T22:04:25.335Z,11.10
2024-02-11T22:07:26.444Z,11.11
2024-02-11T22:10:27.456Z,11.14
2024-02-11T22:13:30.483Z,11.19
2024-02-11T22:16:31.461Z,11.23
2024-02-11T22:19:32.464Z,11.24
2024-02-11T22:22:33.569Z,11.22
2024-02-11T22:25:34.768Z,11.19
2024-02-11T22:28:35.771Z,11.23
2024-02-11T22:31:38.628Z,11.28
2024-02-11T22:34:40.125Z,11.31
2024-02-11T22:37:41.125Z,11.32
2024-02-11T22:40:42.109Z,11.32
2024-02-11T22:43:45.897Z,11.34
2024-02-11T22:46:46.883Z,11.36
2024-02-11T22:49:48.984Z,11.37
2024-02-11T22:52:51.285Z,11.38
2024-02-11T22:55:52.322Z,11.33
2024-02-11T22:58:53.295Z,11.28
2024-02-11T23:01:54.257Z,11.21
2024-02-11T23:04:55.468Z,11.19
2024-02-11T23:07:56.637Z,11.18
2024-02-11T23:10:57.732Z,11.15
2024-02-11T23:13:58.854Z,11.11
2024-02-11T23:17:00.544Z,11.07
2024-02-11T23:20:07.554Z,11.01
2024-02-11T23:23:08.702Z,10.97
2024-02-11T23:26:09.681Z,10.93
2024-02-11T23:29:10.922Z,10.89
2024-02-11T23:32:12.717Z,10.85
2024-02-11T23:35:14.998Z,10.83
2024-02-11T23:38:19.538Z,10.80
2024-02-11T23:41:21.805Z,10.78
2024-02-11T23:44:22.778Z,10.78
2024-02-11T23:47:24.381Z,10.77
2024-02-11T23:50:25.461Z,10.77
2024-02-11T23:53:29.487Z,10.79
2024-02-11T23:56:32.550Z,10.84
2024-02-11T23:59:34.227Z,10.89
